Flight Track Log - Related Links

Times and Time Zones

All times are in EDT time to prevent confusion due to time zone crossing. See the C-GBCU flight status page for this flight to view local times or setup timezone preferences in your user account.

Time Position Orientation Groundspeed Altitude Reporting Facility
EDT Latitude Longitude Course Direction KTS MPH feet Rate Location/Type
Mon 09:30:16 AM 42.0875 -85.6439 74° East 144 166 5,500  Level Chicago Center
Mon 09:31:18 AM 42.1019 -85.5933 69° East 145 167 5,500  Level Chicago Center
Mon 09:33:23 AM 42.1342 -85.4803 69° East 147 169 5,500 -32 Level Chicago Center
Mon 09:34:00 AM 42.0933 -85.6870 74° East  Level FlightAware Approximate
Mon 09:34:25 AM 42.1478 -85.4286 70° East 147 169 5,400  Level Chicago Center
Mon 09:35:00 AM 42.1030 -85.6417 74° East  Level FlightAware Approximate
Mon 09:35:27 AM 42.1631 -85.3775 68° East 147 169 5,400  Level Chicago Center
Mon 09:36:29 AM 42.1769 -85.3256 70° East 147 169 5,500  Climbing Chicago Center
Mon 09:37:31 AM 42.1919 -85.2739 69° East 147 169 5,400  Descending Chicago Center
Mon 09:38:33 AM 42.2094 -85.2114 69° East 148 170 5,500 48 Climbing Chicago Center
Mon 09:39:35 AM 42.2233 -85.1597 70° East 147 169 5,500 -48 Level Chicago Center
Mon 09:40:37 AM 42.2375 -85.1075 70° East 148 170 5,400 -48 Descending Chicago Center
Mon 09:41:39 AM 42.2522 -85.0547 69° East 149 171 5,400  Level Chicago Center
Mon 09:42:41 AM 42.2672 -84.9981 70° East 150 173 5,400  Level Chicago Center
Mon 09:43:43 AM 42.2819 -84.9450 69° East 151 174 5,400  Level Chicago Center
Mon 09:44:45 AM 42.2961 -84.8928 70° East 149 171 5,400  Level Chicago Center
Mon 09:45:47 AM 42.3111 -84.8403 69° East 149 171 5,400  Level Chicago Center
Mon 09:46:49 AM 42.3281 -84.7764 70° East 151 174 5,400  Level Chicago Center
Mon 09:48:00 AM 42.3305 -84.7115 87° East  Level FlightAware Approximate
Mon 09:50:57 AM 42.3856 -84.5644 87° East 150 173 5,400  Level Chicago Center
Mon 09:52:00 AM 42.3928 -84.5075 80° East  Level Estimated
Mon 09:53:26 AM 42.4231 -84.4258 80° East 151 174 5,400  Level Cleveland Center
Mon 09:53:56 AM 42.4281 -84.3981 76° East 151 174 5,400  Level Cleveland Center
Mon 09:54:56 AM 42.4444 -84.3456 67° East 150 173 5,400  Level Cleveland Center
Mon 09:55:00 AM 42.3441 -84.3273 87° East  Level FlightAware Approximate
Mon 09:56:00 AM 42.3460 -84.2724 87° East  Level FlightAware Approximate
Mon 09:56:00 AM 42.4208 -84.2964 123° Southeast  Level FlightAware Approximate
Mon 09:57:06 AM 42.4733 -84.2317 123° Southeast 151 174 5,400  Level Cleveland Center
Mon 09:57:54 AM 42.4850 -84.1900 69° East 151 174 5,400  Level Cleveland Center
Mon 09:58:55 AM 42.4972 -84.1344 73° East 151 174 5,400  Level Cleveland Center
Mon 10:00:01 AM 42.5178 -84.0764 64° Northeast 153 176 5,400  Level Cleveland Center
Mon 10:02:00 AM 42.5222 -83.9671 87° East  Level FlightAware Approximate
Mon 10:04:06 AM 42.5719 -83.8567 87° East 152 175 5,400  Level Cleveland Center
Mon 10:06:07 AM 42.6022 -83.7483 69° East 152 175 5,400  Level Cleveland Center
Mon 10:07:08 AM 42.6142 -83.6925 74° East 152 175 5,400  Level Cleveland Center
Mon 10:08:03 AM 42.6300 -83.6453 65° Northeast 151 174 5,400  Level Cleveland Center
Mon 10:09:00 AM 42.5369 -83.5815 87° East  Level FlightAware Approximate
Mon 10:09:09 AM 42.6442 -83.5839 73° East 152 175 5,400  Level Cleveland Center
Mon 10:11:16 AM 42.6742 -83.4694 70° East 150 173 5,400  Level Cleveland Center
Mon 10:12:17 AM 42.6881 -83.4136 71° East 150 173 5,400  Level Cleveland Center
Mon 10:13:11 AM 42.6997 -83.3661 72° East 150 173 5,400  Level Cleveland Center
Mon 10:15:15 AM 42.7272 -83.2597 71° East 149 171 5,400 Level Cleveland Center
Mon 10:17:00 AM 42.7002 -83.1687 112° Southeast  Level FlightAware Approximate
Mon 10:24:00 AM 42.7164 -82.7766 85° East  Level Estimated
Mon 10:25:00 AM 42.7151 -82.7206 92° East  Level FlightAware Approximate
Mon 10:25:45 AM 42.7333 -82.6667 92° East 150 173 5,500  Level Toronto Center
Mon 10:26:00 AM 42.7138 -82.6645 92° East  Level FlightAware Approximate
Mon 10:27:00 AM 42.7124 -82.6084 92° East  Level FlightAware Approximate
Mon 10:27:00 AM 42.7354 -82.5966 88° East  Level Estimated
Mon 10:27:45 AM 42.7500 -82.5667 88° East 150 173 5,500  Level Toronto Center
Mon 10:28:00 AM 42.7111 -82.5524 92° East  Level FlightAware Approximate
Mon 10:29:00 AM 42.7097 -82.4963 92° East  Level FlightAware Approximate
Mon 10:29:00 AM 42.7421 -82.4973 99° East  Level FlightAware Approximate
Mon 10:30:00 AM 42.7083 -82.4403 92° East  Level FlightAware Approximate
Mon 10:30:46 AM 42.7500 -82.4000 90° East 150 173 5,500  Level Toronto Center
Mon 10:31:00 AM 42.7068 -82.3842 92° East  Level FlightAware Approximate
Mon 10:31:45 AM 42.7500 -82.3333 90° East 140 161 5,500  Level Toronto Center
Mon 10:32:45 AM 42.7500 -82.2833 90° East 140 161 5,500  Level Toronto Center
Mon 10:33:45 AM 42.7500 -82.2500 90° East 150 173 5,500  Level Toronto Center
Mon 10:34:45 AM 42.7500 -82.1833 90° East 140 161 5,500  Level Toronto Center
Mon 10:35:45 AM 42.7500 -82.1333 90° East 140 161 5,500  Level Toronto Center
Mon 10:36:00 AM 42.7517 -82.1047 90° East  Level Estimated
Mon 10:36:45 AM 42.7500 -82.0833 90° East 140 161 5,500  Level Toronto Center
Mon 10:38:00 AM 42.7161 -82.0183 66° East  Level FlightAware Approximate
Mon 10:40:45 AM 42.7500 -81.8500 86° East 140 161 5,500  Level Toronto Center
Mon 10:43:00 AM 42.7502 -81.7237 90° East  Level FlightAware Approximate
Mon 10:43:45 AM 42.7500 -81.7000 90° East 140 161 5,500  Level Toronto Center
Mon 10:44:45 AM 42.7500 -81.6500 90° East 140 161 5,500  Level Toronto Center
Mon 10:45:00 AM 42.7366 -81.6267 86° East  Level FlightAware Approximate
Mon 10:46:00 AM 42.7394 -81.5707 86° East  Level FlightAware Approximate
Mon 10:46:00 AM 42.7501 -81.5798 90° East  Level FlightAware Approximate
Mon 10:46:45 AM 42.7500 -81.5333 90° East 140 161 5,500  Level Toronto Center
Mon 10:47:45 AM 42.7500 -81.5000 90° East 140 161 5,400 -100 Descending Toronto Center
Mon 10:49:00 AM 42.7500 -81.4298 90° East  Level FlightAware Approximate
Mon 10:56:00 AM 42.7700 -81.1108 85° East  Level Estimated
Mon 10:57:00 AM 42.7700 -81.1108 85° East  Level Estimated
Mon 10:58:00 AM 42.7700 -81.1108 85° East  Level Estimated
Mon 10:59:00 AM 42.7700 -81.1108 85° East  Level Estimated
Mon 11:00:00 AM 42.7700 -81.1108 85° East  Level Estimated
Mon 11:01:00 AM 42.7700 -81.1108 85° East  Level Estimated
Mon 11:02:00 AM 42.7700 -81.1108 85° East  Level Estimated
Mon 11:03:00 AM 42.7700 -81.1108 85° East  Level Estimated
Mon 11:04:00 AM 42.7700 -81.1108 85° East  Level Estimated
Mon 11:05:00 AM 42.7700 -81.1108 85° East  Level Estimated
Mon 11:06:00 AM 42.7700 -81.1108 85° East  Level Estimated
Mon 11:07:00 AM 42.7700 -81.1108 85° East  Level Estimated
Mon 11:08:00 AM 42.7700 -81.1108 85° East  Level Estimated
Mon 11:09:00 AM 42.7700 -81.1108 85° East  Level Estimated
Mon 11:10:00 AM 42.7700 -81.1108 85° East  Level Estimated
Mon 11:11:00 AM 42.7700 -81.1108 85° East  Level Estimated
Mon 11:12:00 AM 42.7700 -81.1108 85° East  Level Estimated
Mon 11:13:00 AM 42.7700 -81.1108 85° East  Level Estimated
Mon 11:14:00 AM 42.7700 -81.1108 85° East  Level Estimated
Mon 11:15:00 AM 42.7700 -81.1108 85° East  Level Estimated

Login

Don't have an account? Register now (free) for customized features, flight alerts, and more!